Time;durP1;ratioP1;P1;durP2;ratioP2;P2;SDS_P1;SDS_P2;PMS_P1;PMS_P2;Temp;Humidity;BMP_temperature;BMP_pressure;BME280_temperature;BME280_humidity;BME280_pressure;Samples;Min_cycle;Max_cycle;Signal;HPM_P1;HPM_P2
2022/07/27 00:01:57;;;;;;;;;4.00;3.00;;;;;20.55;52.12;101557.38;5078985;27;45551;-64
2022/07/27 00:04:23;;;;;;;;;3.00;3.00;;;;;20.49;52.37;101547.34;5079538;27;45372;-59
2022/07/27 00:06:48;;;;;;;;;2.75;2.75;;;;;20.51;52.76;101548.00;5079079;27;45483;-58
2022/07/27 00:09:14;;;;;;;;;4.00;4.00;;;;;20.52;52.86;101548.81;5078727;27;46977;-64
2022/07/27 00:11:39;;;;;;;;;6.50;4.75;;;;;20.50;52.35;101546.31;5078902;27;45361;-59
2022/07/27 00:14:04;;;;;;;;;4.25;4.25;;;;;20.54;53.22;101547.59;5079092;27;45491;-59
2022/07/27 00:16:30;;;;;;;;;3.75;3.75;;;;;20.50;53.09;101538.22;5079133;27;45246;-64
2022/07/27 00:18:55;;;;;;;;;7.00;4.75;;;;;20.52;53.59;101544.28;5078480;27;47600;-61
2022/07/27 00:21:20;;;;;;;;;4.50;4.00;;;;;20.52;53.18;101546.13;5078684;27;45493;-62
2022/07/27 00:23:46;;;;;;;;;5.75;4.00;;;;;20.53;52.66;101547.81;5078869;27;45280;-63
2022/07/27 00:26:11;;;;;;;;;4.50;4.50;;;;;20.52;53.37;101548.81;5079033;27;45468;-63
2022/07/27 00:28:37;;;;;;;;;3.00;3.00;;;;;20.54;53.48;101546.78;5078874;27;45406;-63
2022/07/27 00:31:02;;;;;;;;;4.25;3.75;;;;;20.55;52.81;101543.03;5078595;27;45330;-62
2022/07/27 00:33:27;;;;;;;;;15.33;11.00;;;;;20.49;53.61;101533.84;5078609;27;45419;-58
2022/07/27 00:35:53;;;;;;;;;9.00;9.00;;;;;20.57;53.30;101544.53;5076875;27;45406;-60
2022/07/27 00:38:18;;;;;;;;;7.25;4.50;;;;;20.53;53.30;101545.09;5078244;27;46178;-62
2022/07/27 00:40:44;;;;;;;;;5.00;4.50;;;;;20.51;53.63;101539.03;5078222;28;45225;-61
2022/07/27 00:43:09;;;;;;;;;6.50;4.50;;;;;20.46;53.55;101542.28;5078350;27;45232;-60
2022/07/27 00:45:34;;;;;;;;;4.25;4.25;;;;;20.38;53.77;101543.25;5078703;27;45270;-62
2022/07/27 00:48:00;;;;;;;;;6.25;4.25;;;;;20.41;54.24;101539.34;5078186;27;45409;-63
2022/07/27 00:50:25;;;;;;;;;4.50;4.50;;;;;20.35;53.51;101540.09;5078255;27;45301;-60
2022/07/27 00:52:51;;;;;;;;;5.25;4.00;;;;;20.37;54.18;101544.28;5078743;27;45442;-62
2022/07/27 00:55:16;;;;;;;;;4.00;4.00;;;;;20.36;54.21;101544.50;5078467;27;45396;-62
2022/07/27 00:57:42;;;;;;;;;6.25;5.00;;;;;20.37;54.08;101543.44;5078240;28;46032;-62
2022/07/27 01:00:08;;;;;;;;;8.00;8.00;;;;;20.39;54.13;101538.69;5077966;27;45357;-62
2022/07/27 01:02:33;;;;;;;;;5.50;5.00;;;;;20.38;54.54;101537.84;5077851;27;45444;-64
2022/07/27 01:04:59;;;;;;;;;4.00;4.00;;;;;20.37;54.28;101536.19;5078593;27;45288;-64
2022/07/27 01:07:25;;;;;;;;;3.75;3.75;;;;;20.35;54.66;101532.84;5078082;27;45456;-59
2022/07/27 01:09:56;;;;;;;;;6.00;4.00;;;;;20.37;54.52;101538.06;5078269;27;45472;-56
2022/07/27 01:12:26;;;;;;;;;5.50;4.00;;;;;20.36;54.91;101533.69;5078129;27;45470;-64
2022/07/27 01:14:53;;;;;;;;;5.75;4.50;;;;;20.33;53.92;101526.78;5078021;27;45242;-64
2022/07/27 01:17:19;;;;;;;;;5.00;4.00;;;;;20.30;54.70;101532.56;5077532;27;46078;-56
2022/07/27 01:19:44;;;;;;;;;4.50;4.00;;;;;20.22;54.90;101526.44;5077776;27;45491;-62
2022/07/27 01:22:10;;;;;;;;;6.00;3.00;;;;;20.19;55.13;101524.97;5077768;27;45186;-62
2022/07/27 01:24:36;;;;;;;;;3.50;3.50;;;;;20.17;54.85;101521.63;5078016;27;45485;-62
2022/07/27 01:27:03;;;;;;;;;4.75;3.00;;;;;20.10;55.27;101524.25;5077622;28;45477;-60
2022/07/27 01:29:29;;;;;;;;;4.00;4.00;;;;;20.11;55.52;101530.50;5077597;27;45456;-60
2022/07/27 01:31:55;;;;;;;;;4.00;4.00;;;;;20.05;55.59;101529.38;5077746;27;45371;-59
2022/07/27 01:34:21;;;;;;;;;3.50;3.50;;;;;20.03;55.57;101517.94;5077456;28;45427;-64
2022/07/27 01:36:47;;;;;;;;;3.00;3.00;;;;;19.90;56.13;101501.59;5077208;27;46265;-62
2022/07/27 01:39:15;;;;;;;;;6.75;4.00;;;;;19.99;55.29;101515.81;5076107;27;45233;-59
2022/07/27 01:41:41;;;;;;;;;3.00;3.00;;;;;19.90;55.69;101520.47;5077547;27;45383;-63
2022/07/27 01:44:06;;;;;;;;;3.75;3.50;;;;;19.79;55.54;101502.06;5077729;27;45388;-60
2022/07/27 01:46:32;;;;;;;;;5.00;3.75;;;;;19.82;56.18;101512.50;5076264;28;47135;-63
2022/07/27 01:48:57;;;;;;;;;4.75;4.75;;;;;19.77;56.14;101520.31;5076403;28;45365;-63
2022/07/27 01:51:22;;;;;;;;;4.50;4.00;;;;;19.69;56.71;101514.00;5078503;28;45308;-60
2022/07/27 01:53:48;;;;;;;;;3.00;3.00;;;;;19.68;56.45;101517.72;5078130;28;45324;-56
2022/07/27 01:56:13;;;;;;;;;6.50;5.50;;;;;19.64;56.83;101521.81;5078003;27;45965;-58
2022/07/27 01:58:40;;;;;;;;;3.00;2.75;;;;;19.64;56.81;101521.00;5077796;27;45635;-61
2022/07/27 02:01:06;;;;;;;;;5.00;3.00;;;;;19.61;56.77;101519.50;5076532;27;45422;-64
2022/07/27 02:03:32;;;;;;;;;5.00;3.50;;;;;19.60;56.97;101511.56;5077460;27;45464;-63
2022/07/27 02:05:58;;;;;;;;;4.25;3.00;;;;;19.57;56.94;101511.91;5077033;28;46356;-65
2022/07/27 02:08:24;;;;;;;;;4.00;4.00;;;;;19.54;56.81;101513.13;5077244;27;45253;-57
2022/07/27 02:13:33;;;;;;;;;3.50;3.00;;;;;19.45;56.83;101512.38;5077638;28;45202;-57
2022/07/27 02:15:59;;;;;;;;;4.00;4.00;;;;;19.43;57.42;101508.22;5077235;27;45943;-65
2022/07/27 02:18:25;;;;;;;;;5.00;3.33;;;;;19.42;57.02;101511.91;5076888;27;45470;-64
2022/07/27 02:20:51;;;;;;;;;3.50;3.00;;;;;19.39;57.18;101506.91;5077055;28;45566;-62
2022/07/27 02:23:16;;;;;;;;;5.00;4.67;;;;;19.35;57.22;101511.00;5077311;27;45424;-61
2022/07/27 02:25:42;;;;;;;;;4.00;4.00;;;;;19.19;57.15;101488.56;5076881;27;45578;-63
2022/07/27 02:28:07;;;;;;;;;3.00;3.00;;;;;19.25;57.55;101507.72;5076948;27;45335;-62
2022/07/27 02:30:33;;;;;;;;;4.00;3.00;;;;;19.24;57.70;101504.19;5077002;28;45352;-60
2022/07/27 02:32:58;;;;;;;;;4.00;2.50;;;;;19.16;57.36;101499.72;5075675;28;45395;-64
2022/07/27 02:35:24;;;;;;;;;4.25;3.00;;;;;19.25;57.84;101513.13;5076470;27;45428;-62
2022/07/27 02:37:49;;;;;;;;;2.25;2.25;;;;;19.24;57.49;101514.16;5076665;27;45415;-58
2022/07/27 02:40:16;;;;;;;;;4.00;4.00;;;;;19.15;57.64;101502.59;5076870;27;45250;-60
2022/07/27 02:42:42;;;;;;;;;4.00;2.25;;;;;19.19;58.00;101518.25;5076985;28;45387;-62
2022/07/27 02:45:08;;;;;;;;;5.25;5.00;;;;;19.15;57.87;101516.94;5076598;27;45416;-59
2022/07/27 02:47:34;;;;;;;;;3.25;2.75;;;;;19.05;58.20;101505.59;5076592;27;45298;-59
2022/07/27 02:50:03;;;;;;;;;4.50;4.50;;;;;19.10;58.32;101511.25;5076513;28;45223;-59
2022/07/27 02:52:28;;;;;;;;;4.75;3.00;;;;;19.05;58.22;101504.75;5076960;28;45340;-59
2022/07/27 02:54:54;;;;;;;;;10.00;5.00;;;;;19.06;58.12;101501.84;5076321;27;45730;-65
2022/07/27 02:57:19;;;;;;;;;4.67;4.00;;;;;19.04;58.07;101517.38;5076527;27;45377;-57
2022/07/27 02:59:44;;;;;;;;;5.00;5.00;;;;;19.02;58.35;101522.13;5077967;27;45492;-60
2022/07/27 03:02:10;;;;;;;;;4.00;4.00;;;;;18.99;57.95;101511.69;5080203;27;45229;-63
2022/07/27 03:04:35;;;;;;;;;2.33;2.33;;;;;18.97;58.42;101510.22;5079858;28;46476;-62
2022/07/27 03:07:00;;;;;;;;;3.00;3.00;;;;;18.93;58.18;101502.47;5079690;27;45456;-60
2022/07/27 03:09:26;;;;;;;;;5.67;4.33;;;;;18.86;58.58;101501.53;5079779;27;45467;-61
2022/07/27 03:11:51;;;;;;;;;5.33;4.00;;;;;18.91;58.33;101509.06;5080124;28;45236;-61
2022/07/27 03:14:16;;;;;;;;;4.33;2.33;;;;;18.90;58.44;101502.00;5079817;27;46102;-63
2022/07/27 03:16:42;;;;;;;;;4.00;3.67;;;;;18.88;58.54;101501.38;5079658;27;45332;-54
2022/07/27 03:19:07;;;;;;;;;6.00;3.67;;;;;18.87;58.47;101502.38;5079438;27;45364;-64
2022/07/27 03:21:32;;;;;;;;;4.33;3.00;;;;;18.84;58.04;101500.91;5080053;27;45412;-63
2022/07/27 03:23:58;;;;;;;;;6.00;5.00;;;;;18.80;58.68;101502.28;5079458;27;45255;-64
2022/07/27 03:26:23;;;;;;;;;4.00;3.00;;;;;18.77;58.67;101494.53;5079388;27;45595;-59
2022/07/27 03:28:49;;;;;;;;;5.00;5.00;;;;;18.79;58.60;101505.97;5079456;28;45247;-65
2022/07/27 03:31:14;;;;;;;;;3.50;2.25;;;;;18.78;58.54;101504.31;5079784;27;45353;-63
2022/07/27 03:33:40;;;;;;;;;5.25;3.00;;;;;18.75;58.56;101506.50;5079167;27;45974;-57
2022/07/27 03:36:06;;;;;;;;;4.00;4.00;;;;;18.74;58.08;101507.53;5079194;27;45396;-58
2022/07/27 03:38:31;;;;;;;;;6.00;6.00;;;;;18.70;58.47;101502.50;5079300;27;45276;-60
2022/07/27 03:40:57;;;;;;;;;4.33;2.33;;;;;18.68;58.49;101509.91;5079342;27;45283;-59
2022/07/27 03:43:22;;;;;;;;;4.67;4.67;;;;;18.66;58.25;101509.25;5079122;27;46192;-60
2022/07/27 03:45:47;;;;;;;;;6.00;4.67;;;;;18.63;57.85;101506.09;5079273;27;45261;-65
2022/07/27 03:48:13;;;;;;;;;4.00;3.00;;;;;18.59;58.50;101512.88;5078200;27;45308;-62
2022/07/27 03:50:38;;;;;;;;;4.67;4.67;;;;;18.54;58.78;101496.38;5079364;27;45410;-62
2022/07/27 03:53:03;;;;;;;;;4.67;3.67;;;;;18.55;58.33;101504.31;5079272;27;45610;-62
2022/07/27 03:55:29;;;;;;;;;5.00;3.67;;;;;18.44;58.29;101489.38;5077722;28;45431;-61
2022/07/27 03:57:54;;;;;;;;;4.75;4.75;;;;;18.45;58.69;101496.44;5079232;28;45354;-64
2022/07/27 04:00:20;;;;;;;;;5.00;4.33;;;;;18.43;58.87;101497.66;5079403;27;45646;-60
2022/07/27 04:02:46;;;;;;;;;3.00;3.00;;;;;18.45;58.77;101498.31;5078933;27;46205;-64
2022/07/27 04:05:11;;;;;;;;;5.67;4.67;;;;;18.35;58.46;101486.94;5078712;28;45393;-63
2022/07/27 04:07:38;;;;;;;;;5.00;4.00;;;;;18.43;58.19;101500.34;5078951;27;45308;-57
2022/07/27 04:10:04;;;;;;;;;5.00;3.00;;;;;18.41;57.97;101499.69;5079422;27;45216;-62
2022/07/27 04:12:29;;;;;;;;;4.00;2.67;;;;;18.38;58.44;101498.19;5077862;28;47801;-62
2022/07/27 04:14:55;;;;;;;;;3.00;3.00;;;;;18.40;57.74;101503.41;5078571;27;45423;-63
2022/07/27 04:17:20;;;;;;;;;4.33;4.33;;;;;18.39;57.97;101510.66;5079165;27;45289;-64
2022/07/27 04:19:45;;;;;;;;;5.67;3.33;;;;;18.38;57.58;101506.28;5078774;27;45461;-61
2022/07/27 04:22:11;;;;;;;;;7.67;5.00;;;;;18.36;58.15;101499.38;5078561;27;47085;-65
2022/07/27 04:24:36;;;;;;;;;3.33;2.67;;;;;18.35;57.86;101503.09;5078707;28;45657;-63
2022/07/27 04:27:01;;;;;;;;;3.00;3.00;;;;;18.34;57.97;101506.81;5077576;27;45319;-65
2022/07/27 04:29:27;;;;;;;;;6.00;2.00;;;;;18.29;57.19;101496.59;5078928;27;45300;-62
2022/07/27 04:31:52;;;;;;;;;2.67;2.67;;;;;18.29;58.09;101506.53;5078361;28;47035;-65
2022/07/27 04:34:18;;;;;;;;;3.33;3.33;;;;;18.28;58.07;101505.66;5078230;27;45283;-64
2022/07/27 04:36:44;;;;;;;;;5.67;4.00;;;;;18.28;57.64;101512.91;5078576;27;45376;-65
2022/07/27 04:39:09;;;;;;;;;5.00;3.00;;;;;18.18;57.80;101497.00;5077087;28;45351;-66
2022/07/27 04:41:35;;;;;;;;;6.33;3.33;;;;;18.20;57.89;101508.41;5078478;27;46203;-64
2022/07/27 04:44:00;;;;;;;;;4.33;3.00;;;;;18.21;57.52;101510.09;5078311;28;45416;-65
2022/07/27 04:46:28;;;;;;;;;5.00;3.67;;;;;18.19;57.74;101506.75;5078554;28;45553;-63
2022/07/27 04:48:54;;;;;;;;;3.00;3.00;;;;;18.19;57.62;101510.25;5078535;27;45616;-63
2022/07/27 04:51:19;;;;;;;;;4.00;4.00;;;;;18.18;57.52;101507.75;5077992;28;45409;-64
2022/07/27 04:53:44;;;;;;;;;3.00;3.00;;;;;18.16;57.61;101505.25;5078230;27;45266;-63
2022/07/27 04:56:10;;;;;;;;;25.00;19.00;;;;;18.16;57.44;101499.00;5078257;27;45304;-63
2022/07/27 04:58:36;;;;;;;;;42.00;30.67;;;;;18.19;57.23;101504.88;5078368;27;45496;-62
2022/07/27 05:01:02;;;;;;;;;7.33;4.00;;;;;18.21;57.63;101502.03;5076856;27;45564;-62
2022/07/27 05:03:28;;;;;;;;;3.00;3.00;;;;;18.22;57.51;101506.38;5077994;27;45252;-65
2022/07/27 05:05:53;;;;;;;;;6.33;3.33;;;;;18.22;57.50;101503.69;5078139;28;45315;-65
2022/07/27 05:08:19;;;;;;;;;4.00;2.67;;;;;18.22;56.99;101502.88;5078158;27;45449;-62
2022/07/27 05:10:44;;;;;;;;;4.00;4.00;;;;;18.25;57.15;101510.59;5077917;27;45431;-63
2022/07/27 05:13:10;;;;;;;;;5.33;4.00;;;;;18.24;56.96;101517.81;5078093;27;45400;-61
2022/07/27 05:15:36;;;;;;;;;6.33;5.00;;;;;18.23;56.95;101510.75;5077872;27;45330;-62
2022/07/27 05:18:02;;;;;;;;;2.33;2.00;;;;;18.19;57.12;101509.44;5078342;27;45315;-62
2022/07/27 05:20:27;;;;;;;;;4.00;3.33;;;;;18.25;56.84;101515.97;5077712;27;46187;-62
2022/07/27 05:22:52;;;;;;;;;2.67;2.33;;;;;18.23;56.61;101516.13;5078316;27;45359;-65
2022/07/27 05:25:20;;;;;;;;;2.00;2.00;;;;;18.25;56.70;101519.50;5079398;28;45356;-64
2022/07/27 05:27:46;;;;;;;;;3.00;2.67;;;;;18.29;56.51;101518.13;5079495;27;45242;-55
2022/07/27 05:30:12;;;;;;;;;4.00;3.00;;;;;18.33;56.52;101529.38;5078513;27;46215;-57
2022/07/27 05:32:37;;;;;;;;;5.00;3.00;;;;;18.34;56.46;101529.22;5079526;28;45493;-55
2022/07/27 05:35:03;;;;;;;;;3.67;3.67;;;;;18.28;56.04;101510.22;5078334;28;45425;-61
2022/07/27 05:37:29;;;;;;;;;4.00;3.00;;;;;18.40;55.75;101524.94;5078351;27;45589;-55
2022/07/27 05:39:54;;;;;;;;;5.67;5.00;;;;;18.40;55.93;101541.13;5077561;27;45432;-57
2022/07/27 05:42:19;;;;;;;;;2.33;2.33;;;;;18.40;55.75;101530.34;5077931;27;45365;-64
2022/07/27 05:44:45;;;;;;;;;5.00;4.00;;;;;18.39;55.39;101531.38;5079558;27;45433;-57
2022/07/27 05:47:10;;;;;;;;;5.33;3.33;;;;;18.40;55.48;101535.72;5078440;27;45345;-57
2022/07/27 05:49:35;;;;;;;;;6.00;2.67;;;;;18.25;55.89;101513.28;5076778;27;48162;-55
2022/07/27 05:52:01;;;;;;;;;2.67;2.67;;;;;18.42;55.54;101536.41;5078423;27;45541;-57
2022/07/27 05:54:26;;;;;;;;;4.00;4.00;;;;;18.45;55.52;101536.84;5078260;27;45472;-64
2022/07/27 05:56:51;;;;;;;;;7.67;3.33;;;;;18.45;55.30;101527.94;5077834;27;45286;-64
2022/07/27 05:59:17;;;;;;;;;4.00;3.00;;;;;18.51;55.16;101529.09;5077141;27;46822;-65
2022/07/27 06:01:43;;;;;;;;;5.00;3.67;;;;;18.54;55.24;101534.97;5077271;28;45449;-58
2022/07/27 06:04:08;;;;;;;;;8.00;4.00;;;;;18.57;54.78;101529.19;5077490;27;45192;-63
2022/07/27 06:09:18;;;;;;;;;3.00;3.00;;;;;18.59;55.07;101532.56;5077428;28;45697;-58
2022/07/27 06:11:43;;;;;;;;;3.67;3.67;;;;;18.61;54.80;101545.84;5077206;28;45454;-55
2022/07/27 06:14:09;;;;;;;;;4.00;3.00;;;;;18.63;54.78;101541.97;5077279;28;45264;-63
2022/07/27 06:16:35;;;;;;;;;4.67;3.00;;;;;18.65;54.67;101550.69;5076013;28;45456;-64
2022/07/27 06:19:01;;;;;;;;;7.67;3.33;;;;;18.69;54.68;101540.41;5076740;28;46178;-59
2022/07/27 06:21:27;;;;;;;;;3.67;3.00;;;;;18.75;54.32;101545.13;5076847;27;45329;-59
2022/07/27 06:23:56;;;;;;;;;6.33;5.00;;;;;18.78;54.30;101547.44;5077056;27;45456;-62
2022/07/27 06:26:22;;;;;;;;;3.00;3.00;;;;;18.75;54.08;101541.56;5077280;27;45450;-61
2022/07/27 06:28:47;;;;;;;;;5.67;4.67;;;;;18.86;54.22;101555.44;5076825;28;47470;-63
2022/07/27 06:31:13;;;;;;;;;2.67;2.67;;;;;18.88;53.97;101557.97;5075699;27;45442;-63
2022/07/27 06:33:39;;;;;;;;;5.67;2.67;;;;;18.89;53.85;101555.09;5077028;28;45396;-63
2022/07/27 06:36:07;;;;;;;;;5.00;3.00;;;;;18.82;53.83;101537.13;5079928;27;45277;-61
2022/07/27 06:38:32;;;;;;;;;3.00;3.00;;;;;18.97;53.96;101550.66;5080175;27;46214;-62
2022/07/27 06:40:58;;;;;;;;;5.00;3.00;;;;;19.07;53.80;101546.66;5080297;27;45308;-59
2022/07/27 06:43:26;;;;;;;;;3.67;3.67;;;;;19.12;53.55;101552.34;5080301;27;45340;-63
2022/07/27 06:45:54;;;;;;;;;8.00;3.00;;;;;19.09;53.53;101538.41;5080581;27;45382;-62
2022/07/27 06:48:20;;;;;;;;;4.00;4.00;;;;;19.26;53.26;101553.41;5080120;27;45355;-65
2022/07/27 06:50:47;;;;;;;;;4.00;4.00;;;;;19.35;53.18;101555.00;5080085;27;45332;-57
2022/07/27 06:53:12;;;;;;;;;3.00;3.00;;;;;19.39;53.00;101537.41;5080316;27;45431;-63
2022/07/27 06:55:38;;;;;;;;;3.67;3.33;;;;;19.59;52.99;101555.75;5080348;27;45466;-60
2022/07/27 06:58:03;;;;;;;;;4.33;3.33;;;;;19.80;52.73;101550.44;5079925;27;45917;-64
2022/07/27 07:00:29;;;;;;;;;4.00;4.00;;;;;20.11;51.91;101550.22;5078503;27;45418;-62
2022/07/27 07:02:58;;;;;;;;;6.00;4.67;;;;;20.43;51.22;101548.91;5080142;28;45332;-64
2022/07/27 07:05:24;;;;;;;;;5.00;5.00;;;;;20.82;51.00;101549.56;5080228;27;45242;-63
2022/07/27 07:07:49;;;;;;;;;4.25;4.00;;;;;21.18;49.74;101531.31;5079772;27;47182;-61
2022/07/27 07:10:15;;;;;;;;;2.75;2.75;;;;;21.84;48.83;101557.13;5079719;27;45425;-62
2022/07/27 07:12:40;;;;;;;;;3.75;3.75;;;;;22.35;47.13;101554.00;5080005;27;45454;-58
2022/07/27 07:15:06;;;;;;;;;4.00;3.25;;;;;22.87;48.21;101555.94;5080089;27;45460;-66
2022/07/27 07:17:32;;;;;;;;;6.75;6.00;;;;;23.26;46.45;101553.47;5079890;27;45670;-59
2022/07/27 07:19:57;;;;;;;;;5.75;5.25;;;;;23.72;44.91;101560.69;5079729;27;45391;-61
2022/07/27 07:22:24;;;;;;;;;5.50;5.00;;;;;24.22;44.99;101545.44;5079902;27;45768;-58
2022/07/27 07:24:49;;;;;;;;;5.00;5.00;;;;;24.75;43.17;101547.03;5079784;27;45282;-57
2022/07/27 07:27:17;;;;;;;;;3.00;3.00;;;;;25.38;41.94;101549.63;5079595;27;45429;-61
2022/07/27 07:29:43;;;;;;;;;6.00;3.00;;;;;25.94;42.41;101545.84;5079481;28;45325;-62
2022/07/27 07:32:08;;;;;;;;;5.25;2.25;;;;;26.62;40.18;101545.53;5079584;28;45491;-59
2022/07/27 07:34:34;;;;;;;;;3.75;3.75;;;;;27.68;38.86;101545.56;5079419;27;45518;-63
2022/07/27 07:36:59;;;;;;;;;6.75;5.25;;;;;29.65;35.84;101543.00;5079162;28;45577;-62
2022/07/27 07:39:24;;;;;;;;;4.25;3.75;;;;;31.67;32.66;101540.69;5079312;28;45433;-58
2022/07/27 07:41:51;;;;;;;;;7.00;4.75;;;;;33.35;30.10;101534.56;5079764;27;45359;-60
2022/07/27 07:44:16;;;;;;;;;3.80;3.80;;;;;34.83;26.99;101542.03;5079561;28;45450;-63
2022/07/27 07:46:42;;;;;;;;;7.25;5.25;;;;;36.16;26.97;101549.66;5078095;27;45391;-60
2022/07/27 07:49:09;;;;;;;;;6.00;4.00;;;;;37.06;24.53;101533.78;5079331;27;45326;-58
2022/07/27 07:51:34;;;;;;;;;6.00;5.00;;;;;38.13;22.37;101535.16;5079360;27;45287;-60
2022/07/27 07:54:00;;;;;;;;;4.00;4.00;;;;;39.04;22.65;101539.56;5079465;27;45335;-59
2022/07/27 07:56:26;;;;;;;;;4.75;4.00;;;;;39.77;21.81;101540.00;5079047;27;45406;-63
2022/07/27 07:58:51;;;;;;;;;3.25;3.25;;;;;40.51;22.79;101535.47;5078950;27;45275;-59
2022/07/27 08:01:17;;;;;;;;;7.25;3.25;;;;;40.78;19.97;101535.09;5079182;27;45383;-64
2022/07/27 08:03:42;;;;;;;;;2.00;2.00;;;;;41.17;22.67;101532.34;5079157;27;45448;-63
2022/07/27 08:06:07;;;;;;;;;9.00;8.25;;;;;41.36;21.33;101522.38;5078858;27;46512;-61
2022/07/27 08:08:33;;;;;;;;;7.75;7.75;;;;;41.74;20.98;101532.69;5078852;28;45307;-62
2022/07/27 08:10:58;;;;;;;;;8.25;7.50;;;;;41.85;19.64;101533.16;5077599;27;45764;-61
2022/07/27 08:13:24;;;;;;;;;6.00;4.00;;;;;42.41;17.98;101518.88;5079158;27;45466;-62
2022/07/27 08:15:51;;;;;;;;;3.50;3.00;;;;;43.10;17.11;101523.69;5078660;27;46145;-61
2022/07/27 08:18:16;;;;;;;;;3.80;3.80;;;;;43.67;18.58;101519.16;5078765;27;45400;-62
2022/07/27 08:20:42;;;;;;;;;4.00;4.00;;;;;44.22;16.63;101524.00;5078657;27;45385;-60
2022/07/27 08:23:07;;;;;;;;;6.25;6.00;;;;;44.78;16.15;101517.53;5077420;28;45441;-60
2022/07/27 08:25:33;;;;;;;;;8.75;4.25;;;;;45.14;15.82;101529.72;5078498;28;47071;-60
2022/07/27 08:27:59;;;;;;;;;6.00;5.25;;;;;45.30;15.49;101530.47;5078796;27;45242;-62
2022/07/27 08:30:24;;;;;;;;;5.00;3.00;;;;;45.49;16.49;101538.19;5078782;27;45432;-62
2022/07/27 08:32:53;;;;;;;;;8.25;7.00;;;;;45.40;15.70;101526.31;5078698;27;45535;-61
2022/07/27 08:35:19;;;;;;;;;4.80;3.80;;;;;45.58;17.05;101533.16;5078012;27;45310;-59
2022/07/27 08:37:45;;;;;;;;;6.75;5.00;;;;;45.75;16.72;101529.94;5078311;27;45251;-59
2022/07/27 08:40:11;;;;;;;;;8.50;5.00;;;;;45.73;16.69;101526.69;5078405;27;45389;-62
2022/07/27 08:42:40;;;;;;;;;4.20;4.20;;;;;46.21;14.85;101530.13;5078647;27;45363;-60
2022/07/27 08:45:07;;;;;;;;;5.80;5.20;;;;;46.28;14.46;101519.03;5077813;27;47577;-61
2022/07/27 08:47:34;;;;;;;;;4.40;4.40;;;;;46.77;16.96;101523.16;5078194;27;45317;-62
2022/07/27 08:50:00;;;;;;;;;4.00;4.00;;;;;46.52;14.17;101531.13;5078564;27;45296;-63
2022/07/27 08:52:25;;;;;;;;;7.50;5.25;;;;;47.00;14.76;101523.97;5078382;27;45502;-59
2022/07/27 08:54:51;;;;;;;;;4.75;4.00;;;;;47.35;14.07;101524.94;5078058;27;47391;-63
2022/07/27 08:57:16;;;;;;;;;5.00;3.50;;;;;47.32;14.08;101522.88;5077516;28;45294;-64
2022/07/27 08:59:42;;;;;;;;;6.25;4.00;;;;;47.82;12.96;101527.22;5078077;27;45276;-63
2022/07/27 09:02:14;;;;;;;;;4.25;4.25;;;;;48.34;15.08;101519.81;5078619;27;45233;-60
2022/07/27 09:04:40;;;;;;;;;5.00;5.00;;;;;47.09;14.25;101526.53;5078087;27;46237;-62
2022/07/27 09:07:05;;;;;;;;;3.80;3.80;;;;;47.46;14.10;101526.72;5077865;27;45278;-61
2022/07/27 09:09:44;;;;;;;;;4.25;4.00;;;;;46.13;16.75;101533.97;5078112;28;45333;-62
2022/07/27 09:12:10;;;;;;;;;4.00;4.00;;;;;46.17;13.96;101537.66;5078228;27;45561;-64
2022/07/27 09:14:38;;;;;;;;;5.00;4.50;;;;;46.28;14.24;101533.09;5077498;27;45536;-60
2022/07/27 09:17:26;;;;;;;;;6.20;4.80;;;;;44.39;16.06;101524.91;5077953;27;45250;-62
2022/07/27 09:19:59;;;;;;;;;3.60;3.60;;;;;43.04;16.77;101528.72;5077776;27;45249;-61
2022/07/27 09:22:45;;;;;;;;;6.80;4.20;;;;;40.90;18.18;101535.22;5077907;28;45469;-61
2022/07/27 09:25:14;;;;;;;;;2.40;2.00;;;;;42.35;17.43;101532.22;5077627;27;46900;-58
2022/07/27 09:27:41;;;;;;;;;4.80;3.80;;;;;43.86;15.77;101521.31;5077693;27;45316;-62
2022/07/27 09:30:12;;;;;;;;;6.60;6.00;;;;;44.95;14.82;101525.59;5077745;27;45277;-59
2022/07/27 09:32:49;;;;;;;;;5.00;5.00;;;;;45.93;14.70;101521.09;5077958;27;45446;-62
2022/07/27 09:35:18;;;;;;;;;3.20;3.20;;;;;46.36;14.57;101530.44;5075876;27;46375;-59
2022/07/27 09:37:43;;;;;;;;;6.00;3.80;;;;;46.80;15.13;101532.84;5077306;27;45247;-59
2022/07/27 09:40:19;;;;;;;;;7.00;3.50;;;;;47.48;13.13;101526.34;5077585;27;45258;-62
2022/07/27 09:42:45;;;;;;;;;4.00;2.20;;;;;48.09;12.38;101528.00;5077600;27;45332;-60
2022/07/27 09:45:33;;;;;;;;;8.60;4.00;;;;;48.39;12.43;101521.47;5077103;27;47302;-62
2022/07/27 09:48:24;;;;;;;;;4.00;2.20;;;;;45.96;14.69;101511.91;5077355;28;45467;-57
2022/07/27 09:50:58;;;;;;;;;3.80;3.80;;;;;43.41;15.80;101525.94;5077519;28;45286;-59
2022/07/27 09:53:29;;;;;;;;;3.20;2.40;;;;;45.05;14.71;101524.28;5077554;28;45500;-61
2022/07/27 09:56:00;;;;;;;;;3.00;3.00;;;;;46.25;13.99;101528.22;5077170;27;45604;-61
2022/07/27 09:58:43;;;;;;;;;3.20;3.00;;;;;46.55;14.64;101513.50;5077146;27;45486;-64
2022/07/27 10:01:11;;;;;;;;;3.00;3.00;;;;;47.02;12.06;101503.88;5077431;28;45334;-61
2022/07/27 10:03:39;;;;;;;;;2.00;2.00;;;;;47.48;11.97;101517.88;5077599;27;45776;-64
2022/07/27 10:06:04;;;;;;;;;5.00;2.80;;;;;47.39;11.97;101506.88;5076836;27;47039;-62
2022/07/27 10:08:30;;;;;;;;;6.00;3.50;;;;;44.97;13.47;101499.97;5076821;27;45353;-64
2022/07/27 10:10:56;;;;;;;;;2.40;2.20;;;;;44.61;14.01;101506.63;5080424;27;45474;-60
2022/07/27 10:13:23;;;;;;;;;2.20;2.20;;;;;44.66;14.52;101507.19;5080965;27;45354;-63
2022/07/27 10:15:49;;;;;;;;;5.80;2.80;;;;;45.91;13.56;101507.41;5080475;27;46396;-63
2022/07/27 10:18:21;;;;;;;;;3.00;2.60;;;;;44.87;14.77;101494.91;5080623;27;45349;-61
2022/07/27 10:20:47;;;;;;;;;4.40;4.40;;;;;43.10;15.81;101501.31;5080659;28;45427;-61
2022/07/27 10:23:26;;;;;;;;;3.80;2.40;;;;;44.43;14.73;101506.16;5080779;27;45502;-63
2022/07/27 10:26:33;;;;;;;;;1.20;1.20;;;;;45.35;13.36;101504.13;5080543;27;46310;-62
2022/07/27 10:29:01;;;;;;;;;2.40;2.00;;;;;46.17;13.73;101503.91;5058057;28;45487;-61
2022/07/27 10:31:36;;;;;;;;;7.60;4.60;;;;;46.93;12.72;101501.34;5057601;28;45462;-63
2022/07/27 10:34:04;;;;;;;;;3.40;2.80;;;;;47.61;12.46;101493.91;5058092;28;45653;-63
2022/07/27 10:36:29;;;;;;;;;2.80;2.80;;;;;46.98;12.72;101488.94;5057867;28;46196;-57
2022/07/27 10:38:57;;;;;;;;;3.00;3.00;;;;;43.56;14.90;101487.97;5057630;28;45362;-62
2022/07/27 10:41:31;;;;;;;;;4.20;3.80;;;;;40.87;16.73;101496.81;5057907;28;45483;-62
2022/07/27 10:44:17;;;;;;;;;7.40;5.00;;;;;38.47;18.00;101496.84;5058014;28;45408;-61
2022/07/27 10:46:52;;;;;;;;;5.00;5.00;;;;;40.32;17.04;101496.78;5057635;28;46180;-62
2022/07/27 10:49:23;;;;;;;;;5.60;3.00;;;;;41.56;16.07;101490.09;5040844;28;45275;-61
2022/07/27 10:51:49;;;;;;;;;2.40;2.40;;;;;41.92;14.95;101477.50;5057782;28;45524;-62
2022/07/27 10:54:31;;;;;;;;;4.60;3.80;;;;;42.83;14.79;101483.19;5057676;28;45543;-62
2022/07/27 10:56:58;;;;;;;;;2.20;2.00;;;;;42.87;14.44;101474.94;5057138;28;45473;-64
2022/07/27 10:59:47;;;;;;;;;2.20;2.20;;;;;43.52;14.39;101475.84;5065701;28;45305;-62
2022/07/27 11:02:16;;;;;;;;;2.00;2.00;;;;;44.03;14.28;101474.19;5080462;27;45249;-65
2022/07/27 11:04:50;;;;;;;;;3.20;3.20;;;;;43.74;14.47;101454.88;5080265;27;45316;-63
2022/07/27 11:07:20;;;;;;;;;2.20;2.20;;;;;43.31;14.46;101470.38;5079864;27;45505;-61
2022/07/27 11:09:48;;;;;;;;;3.60;3.40;;;;;43.20;14.17;101470.06;5079832;27;45337;-64
2022/07/27 11:12:15;;;;;;;;;4.60;2.40;;;;;42.45;14.50;101463.88;5079860;27;45427;-62
2022/07/27 11:14:49;;;;;;;;;4.60;2.00;;;;;41.49;14.89;101469.47;5080160;27;45479;-64
2022/07/27 11:17:18;;;;;;;;;2.80;2.00;;;;;41.36;15.17;101458.16;5079883;28;46262;-62
2022/07/27 11:19:43;;;;;;;;;2.20;1.20;;;;;40.35;15.29;101457.91;5079717;27;45261;-63
2022/07/27 11:22:09;;;;;;;;;2.50;2.50;;;;;38.77;16.85;101451.59;5079604;27;45187;-63
2022/07/27 11:24:35;;;;;;;;;3.20;2.20;;;;;37.12;17.91;101452.09;5079826;27;45349;-61
2022/07/27 11:27:01;;;;;;;;;4.00;2.50;;;;;36.50;18.39;101448.84;5079555;27;46141;-63
2022/07/27 11:29:26;;;;;;;;;3.40;3.00;;;;;35.87;19.68;101450.91;5079636;27;45348;-63